sensor_id;sensor_type;location;lat;lon;timestamp;P1;durP1;ratioP1;P2;durP2;ratioP2
63906;SDS011;50075;49.484;11.238;2023-08-01T00:00:38;96.15;;;9.75;;
63906;SDS011;50075;49.484;11.238;2023-08-01T00:03:03;98.60;;;9.47;;
63906;SDS011;50075;49.484;11.238;2023-08-01T00:05:28;136.23;;;11.93;;
63906;SDS011;50075;49.484;11.238;2023-08-01T00:07:53;76.90;;;8.43;;
63906;SDS011;50075;49.484;11.238;2023-08-01T00:10:19;110.83;;;10.70;;
63906;SDS011;50075;49.484;11.238;2023-08-01T00:12:44;95.03;;;9.90;;
63906;SDS011;50075;49.484;11.238;2023-08-01T00:15:09;101.93;;;14.97;;
63906;SDS011;50075;49.484;11.238;2023-08-01T00:17:34;88.47;;;9.45;;
63906;SDS011;50075;49.484;11.238;2023-08-01T00:20:00;77.23;;;8.73;;
63906;SDS011;50075;49.484;11.238;2023-08-01T00:22:26;115.57;;;10.23;;
63906;SDS011;50075;49.484;11.238;2023-08-01T00:24:51;76.90;;;8.07;;
63906;SDS011;50075;49.484;11.238;2023-08-01T00:27:16;80.10;;;8.93;;
63906;SDS011;50075;49.484;11.238;2023-08-01T00:29:41;79.70;;;8.77;;
63906;SDS011;50075;49.484;11.238;2023-08-01T00:32:07;80.53;;;8.35;;
63906;SDS011;50075;49.484;11.238;2023-08-01T00:34:32;113.07;;;10.82;;
63906;SDS011;50075;49.484;11.238;2023-08-01T00:36:57;85.40;;;9.50;;
63906;SDS011;50075;49.484;11.238;2023-08-01T00:39:23;133.50;;;11.75;;
63906;SDS011;50075;49.484;11.238;2023-08-01T00:41:48;80.38;;;8.98;;
63906;SDS011;50075;49.484;11.238;2023-08-01T00:44:13;80.80;;;8.75;;
63906;SDS011;50075;49.484;11.238;2023-08-01T00:46:39;86.67;;;9.07;;
63906;SDS011;50075;49.484;11.238;2023-08-01T00:49:04;79.72;;;8.65;;
63906;SDS011;50075;49.484;11.238;2023-08-01T00:51:30;132.15;;;12.15;;
63906;SDS011;50075;49.484;11.238;2023-08-01T00:53:56;78.20;;;9.18;;
63906;SDS011;50075;49.484;11.238;2023-08-01T00:56:21;115.53;;;10.45;;
63906;SDS011;50075;49.484;11.238;2023-08-01T00:58:47;96.87;;;9.10;;
63906;SDS011;50075;49.484;11.238;2023-08-01T01:01:12;77.43;;;8.37;;
63906;SDS011;50075;49.484;11.238;2023-08-01T01:03:37;157.47;;;12.53;;
63906;SDS011;50075;49.484;11.238;2023-08-01T01:08:33;141.75;;;12.25;;
63906;SDS011;50075;49.484;11.238;2023-08-01T01:10:59;93.97;;;8.67;;
63906;SDS011;50075;49.484;11.238;2023-08-01T01:13:24;120.90;;;11.33;;
63906;SDS011;50075;49.484;11.238;2023-08-01T01:15:49;78.83;;;8.13;;
63906;SDS011;50075;49.484;11.238;2023-08-01T01:18:14;103.43;;;9.57;;
63906;SDS011;50075;49.484;11.238;2023-08-01T01:20:39;80.77;;;8.03;;
63906;SDS011;50075;49.484;11.238;2023-08-01T01:23:05;84.93;;;8.13;;
63906;SDS011;50075;49.484;11.238;2023-08-01T01:25:31;157.63;;;12.90;;
63906;SDS011;50075;49.484;11.238;2023-08-01T01:27:57;77.78;;;8.00;;
63906;SDS011;50075;49.484;11.238;2023-08-01T01:30:23;90.25;;;8.93;;
63906;SDS011;50075;49.484;11.238;2023-08-01T01:32:49;86.80;;;8.15;;
63906;SDS011;50075;49.484;11.238;2023-08-01T01:35:14;89.07;;;8.30;;
63906;SDS011;50075;49.484;11.238;2023-08-01T01:37:40;72.00;;;7.20;;
63906;SDS011;50075;49.484;11.238;2023-08-01T01:40:05;84.93;;;8.23;;
63906;SDS011;50075;49.484;11.238;2023-08-01T01:42:30;135.02;;;23.25;;
63906;SDS011;50075;49.484;11.238;2023-08-01T01:44:56;79.17;;;9.13;;
63906;SDS011;50075;49.484;11.238;2023-08-01T01:47:21;83.17;;;7.67;;
63906;SDS011;50075;49.484;11.238;2023-08-01T01:49:46;87.40;;;7.93;;
63906;SDS011;50075;49.484;11.238;2023-08-01T01:52:11;63.53;;;6.53;;
63906;SDS011;50075;49.484;11.238;2023-08-01T01:54:37;151.20;;;12.00;;
63906;SDS011;50075;49.484;11.238;2023-08-01T01:57:02;73.43;;;7.17;;
63906;SDS011;50075;49.484;11.238;2023-08-01T01:59:27;91.90;;;6.90;;
63906;SDS011;50075;49.484;11.238;2023-08-01T02:01:52;106.68;;;8.48;;
63906;SDS011;50075;49.484;11.238;2023-08-01T02:04:18;85.50;;;7.20;;
63906;SDS011;50075;49.484;11.238;2023-08-01T02:06:43;75.63;;;7.80;;
63906;SDS011;50075;49.484;11.238;2023-08-01T02:09:08;92.37;;;8.47;;
63906;SDS011;50075;49.484;11.238;2023-08-01T02:11:33;124.27;;;9.97;;
63906;SDS011;50075;49.484;11.238;2023-08-01T02:13:59;77.13;;;7.97;;
63906;SDS011;50075;49.484;11.238;2023-08-01T02:16:24;87.60;;;7.73;;
63906;SDS011;50075;49.484;11.238;2023-08-01T02:18:49;77.23;;;7.20;;
63906;SDS011;50075;49.484;11.238;2023-08-01T02:21:14;75.47;;;7.50;;
63906;SDS011;50075;49.484;11.238;2023-08-01T02:23:39;129.33;;;10.50;;
63906;SDS011;50075;49.484;11.238;2023-08-01T02:26:05;76.75;;;7.95;;
63906;SDS011;50075;49.484;11.238;2023-08-01T02:28:32;134.90;;;11.15;;
63906;SDS011;50075;49.484;11.238;2023-08-01T02:30:57;80.72;;;7.50;;
63906;SDS011;50075;49.484;11.238;2023-08-01T02:33:22;84.97;;;7.67;;
63906;SDS011;50075;49.484;11.238;2023-08-01T02:35:48;125.07;;;33.78;;
63906;SDS011;50075;49.484;11.238;2023-08-01T02:38:13;300.38;;;103.90;;
63906;SDS011;50075;49.484;11.238;2023-08-01T02:40:39;117.17;;;9.80;;
63906;SDS011;50075;49.484;11.238;2023-08-01T02:43:04;105.65;;;10.88;;
63906;SDS011;50075;49.484;11.238;2023-08-01T02:45:29;132.33;;;11.23;;
63906;SDS011;50075;49.484;11.238;2023-08-01T02:47:54;76.17;;;7.47;;
63906;SDS011;50075;49.484;11.238;2023-08-01T02:50:20;71.90;;;7.35;;
63906;SDS011;50075;49.484;11.238;2023-08-01T02:52:45;102.80;;;8.65;;
63906;SDS011;50075;49.484;11.238;2023-08-01T02:55:10;96.22;;;8.20;;
63906;SDS011;50075;49.484;11.238;2023-08-01T02:57:35;123.00;;;10.67;;
63906;SDS011;50075;49.484;11.238;2023-08-01T03:00:01;82.57;;;7.53;;
63906;SDS011;50075;49.484;11.238;2023-08-01T03:02:29;107.72;;;9.65;;
63906;SDS011;50075;49.484;11.238;2023-08-01T03:04:55;86.32;;;8.20;;
63906;SDS011;50075;49.484;11.238;2023-08-01T03:07:20;76.18;;;7.25;;
63906;SDS011;50075;49.484;11.238;2023-08-01T03:09:45;78.03;;;7.57;;
63906;SDS011;50075;49.484;11.238;2023-08-01T03:12:11;71.82;;;7.10;;
63906;SDS011;50075;49.484;11.238;2023-08-01T03:14:36;133.60;;;11.67;;
63906;SDS011;50075;49.484;11.238;2023-08-01T03:17:01;72.20;;;7.53;;
63906;SDS011;50075;49.484;11.238;2023-08-01T03:19:26;83.78;;;8.20;;
63906;SDS011;50075;49.484;11.238;2023-08-01T03:21:51;74.43;;;7.23;;
63906;SDS011;50075;49.484;11.238;2023-08-01T03:24:17;81.55;;;7.93;;
63906;SDS011;50075;49.484;11.238;2023-08-01T03:26:42;131.32;;;11.02;;
63906;SDS011;50075;49.484;11.238;2023-08-01T03:29:07;81.37;;;7.83;;
63906;SDS011;50075;49.484;11.238;2023-08-01T03:31:32;126.40;;;11.07;;
63906;SDS011;50075;49.484;11.238;2023-08-01T03:33:58;74.97;;;7.75;;
63906;SDS011;50075;49.484;11.238;2023-08-01T03:36:26;79.32;;;7.55;;
63906;SDS011;50075;49.484;11.238;2023-08-01T03:38:51;80.37;;;7.60;;
63906;SDS011;50075;49.484;11.238;2023-08-01T03:41:16;79.85;;;7.82;;
63906;SDS011;50075;49.484;11.238;2023-08-01T03:43:41;111.90;;;9.27;;
63906;SDS011;50075;49.484;11.238;2023-08-01T03:46:07;63.77;;;6.97;;
63906;SDS011;50075;49.484;11.238;2023-08-01T03:48:32;121.07;;;10.18;;
63906;SDS011;50075;49.484;11.238;2023-08-01T03:50:57;81.23;;;8.10;;
63906;SDS011;50075;49.484;11.238;2023-08-01T03:53:22;79.80;;;7.73;;
63906;SDS011;50075;49.484;11.238;2023-08-01T03:55:49;71.50;;;6.82;;
63906;SDS011;50075;49.484;11.238;2023-08-01T03:58:14;101.97;;;16.77;;
63906;SDS011;50075;49.484;11.238;2023-08-01T04:00:39;125.15;;;10.82;;
63906;SDS011;50075;49.484;11.238;2023-08-01T04:03:05;107.97;;;8.63;;
63906;SDS011;50075;49.484;11.238;2023-08-01T04:05:30;71.50;;;7.22;;
63906;SDS011;50075;49.484;11.238;2023-08-01T04:07:56;81.07;;;8.03;;
63906;SDS011;50075;49.484;11.238;2023-08-01T04:10:21;87.28;;;7.90;;
63906;SDS011;50075;49.484;11.238;2023-08-01T04:12:47;137.90;;;12.35;;
63906;SDS011;50075;49.484;11.238;2023-08-01T04:15:12;65.93;;;7.17;;
63906;SDS011;50075;49.484;11.238;2023-08-01T04:17:37;137.67;;;11.10;;
63906;SDS011;50075;49.484;11.238;2023-08-01T04:20:02;83.75;;;7.88;;
63906;SDS011;50075;49.484;11.238;2023-08-01T04:22:28;65.80;;;6.93;;
63906;SDS011;50075;49.484;11.238;2023-08-01T04:24:53;93.60;;;8.43;;
63906;SDS011;50075;49.484;11.238;2023-08-01T04:27:18;82.47;;;10.48;;
63906;SDS011;50075;49.484;11.238;2023-08-01T04:29:43;130.23;;;10.40;;
63906;SDS011;50075;49.484;11.238;2023-08-01T04:32:09;99.18;;;8.63;;
63906;SDS011;50075;49.484;11.238;2023-08-01T04:34:37;99.80;;;7.53;;
63906;SDS011;50075;49.484;11.238;2023-08-01T04:37:03;81.33;;;7.63;;
63906;SDS011;50075;49.484;11.238;2023-08-01T04:39:28;119.82;;;15.02;;
63906;SDS011;50075;49.484;11.238;2023-08-01T04:41:53;77.75;;;7.35;;
63906;SDS011;50075;49.484;11.238;2023-08-01T04:44:18;66.77;;;6.53;;
63906;SDS011;50075;49.484;11.238;2023-08-01T04:46:44;168.47;;;12.90;;
63906;SDS011;50075;49.484;11.238;2023-08-01T04:49:09;79.87;;;7.90;;
63906;SDS011;50075;49.484;11.238;2023-08-01T04:51:34;73.77;;;10.30;;
63906;SDS011;50075;49.484;11.238;2023-08-01T04:53:59;85.40;;;8.10;;
63906;SDS011;50075;49.484;11.238;2023-08-01T04:56:25;59.87;;;6.20;;
63906;SDS011;50075;49.484;11.238;2023-08-01T04:58:50;142.53;;;11.47;;
63906;SDS011;50075;49.484;11.238;2023-08-01T05:01:15;92.22;;;8.25;;
63906;SDS011;50075;49.484;11.238;2023-08-01T05:03:40;121.00;;;9.43;;
63906;SDS011;50075;49.484;11.238;2023-08-01T05:06:05;81.07;;;7.93;;
63906;SDS011;50075;49.484;11.238;2023-08-01T05:08:31;76.57;;;7.60;;
63906;SDS011;50075;49.484;11.238;2023-08-01T05:10:56;78.00;;;7.93;;
63906;SDS011;50075;49.484;11.238;2023-08-01T05:13:21;88.35;;;8.40;;
63906;SDS011;50075;49.484;11.238;2023-08-01T05:15:47;152.43;;;12.40;;
63906;SDS011;50075;49.484;11.238;2023-08-01T05:18:13;98.00;;;9.43;;
63906;SDS011;50075;49.484;11.238;2023-08-01T05:20:38;109.07;;;10.05;;
63906;SDS011;50075;49.484;11.238;2023-08-01T05:23:03;108.87;;;9.40;;
63906;SDS011;50075;49.484;11.238;2023-08-01T05:25:29;67.68;;;6.82;;
63906;SDS011;50075;49.484;11.238;2023-08-01T05:27:54;89.63;;;8.40;;
63906;SDS011;50075;49.484;11.238;2023-08-01T05:30:19;79.73;;;8.27;;
63906;SDS011;50075;49.484;11.238;2023-08-01T05:32:44;146.50;;;11.83;;
63906;SDS011;50075;49.484;11.238;2023-08-01T05:35:10;80.15;;;7.47;;
63906;SDS011;50075;49.484;11.238;2023-08-01T05:37:36;103.53;;;8.70;;
63906;SDS011;50075;49.484;11.238;2023-08-01T05:40:02;61.27;;;7.10;;
63906;SDS011;50075;49.484;11.238;2023-08-01T05:42:27;84.68;;;7.95;;
63906;SDS011;50075;49.484;11.238;2023-08-01T05:44:53;149.03;;;12.43;;
63906;SDS011;50075;49.484;11.238;2023-08-01T05:47:18;87.27;;;8.00;;
63906;SDS011;50075;49.484;11.238;2023-08-01T05:49:43;117.13;;;10.20;;
63906;SDS011;50075;49.484;11.238;2023-08-01T05:52:09;103.18;;;8.73;;
63906;SDS011;50075;49.484;11.238;2023-08-01T05:54:34;82.73;;;9.13;;
63906;SDS011;50075;49.484;11.238;2023-08-01T05:56:59;85.53;;;8.63;;
63906;SDS011;50075;49.484;11.238;2023-08-01T05:59:24;101.50;;;9.53;;
63906;SDS011;50075;49.484;11.238;2023-08-01T06:01:49;145.57;;;12.83;;
63906;SDS011;50075;49.484;11.238;2023-08-01T06:04:15;134.45;;;21.67;;
63906;SDS011;50075;49.484;11.238;2023-08-01T06:06:40;133.80;;;11.02;;
63906;SDS011;50075;49.484;11.238;2023-08-01T06:09:05;89.60;;;9.05;;
63906;SDS011;50075;49.484;11.238;2023-08-01T06:11:30;69.77;;;7.47;;
63906;SDS011;50075;49.484;11.238;2023-08-01T06:13:58;93.97;;;8.55;;
63906;SDS011;50075;49.484;11.238;2023-08-01T06:16:23;71.10;;;7.70;;
63906;SDS011;50075;49.484;11.238;2023-08-01T06:18:48;129.25;;;11.75;;
63906;SDS011;50075;49.484;11.238;2023-08-01T06:21:14;78.53;;;8.38;;
63906;SDS011;50075;49.484;11.238;2023-08-01T06:23:39;90.33;;;8.93;;
63906;SDS011;50075;49.484;11.238;2023-08-01T06:26:04;88.18;;;8.45;;
63906;SDS011;50075;49.484;11.238;2023-08-01T06:28:29;87.60;;;8.90;;
63906;SDS011;50075;49.484;11.238;2023-08-01T06:30:56;114.93;;;9.80;;
63906;SDS011;50075;49.484;11.238;2023-08-01T06:33:21;104.95;;;9.13;;
63906;SDS011;50075;49.484;11.238;2023-08-01T06:35:46;144.23;;;12.27;;
63906;SDS011;50075;49.484;11.238;2023-08-01T06:38:12;77.57;;;8.57;;
63906;SDS011;50075;49.484;11.238;2023-08-01T06:40:37;100.00;;;9.67;;
63906;SDS011;50075;49.484;11.238;2023-08-01T06:43:02;104.45;;;9.98;;
63906;SDS011;50075;49.484;11.238;2023-08-01T06:45:27;83.63;;;13.50;;
63906;SDS011;50075;49.484;11.238;2023-08-01T06:47:53;130.75;;;12.57;;
63906;SDS011;50075;49.484;11.238;2023-08-01T06:50:18;77.72;;;9.23;;
63906;SDS011;50075;49.484;11.238;2023-08-01T06:52:43;127.22;;;12.20;;
63906;SDS011;50075;49.484;11.238;2023-08-01T06:55:09;87.73;;;9.93;;
63906;SDS011;50075;49.484;11.238;2023-08-01T06:57:34;76.47;;;9.00;;
63906;SDS011;50075;49.484;11.238;2023-08-01T06:59:59;77.60;;;8.93;;
63906;SDS011;50075;49.484;11.238;2023-08-01T07:02:24;77.72;;;9.55;;
63906;SDS011;50075;49.484;11.238;2023-08-01T07:04:50;121.40;;;41.20;;
63906;SDS011;50075;49.484;11.238;2023-08-01T07:07:15;68.97;;;8.27;;
63906;SDS011;50075;49.484;11.238;2023-08-01T07:09:41;78.43;;;8.95;;
63906;SDS011;50075;49.484;11.238;2023-08-01T07:12:06;68.03;;;8.40;;
63906;SDS011;50075;49.484;11.238;2023-08-01T07:14:31;63.80;;;7.65;;
63906;SDS011;50075;49.484;11.238;2023-08-01T07:16:56;114.95;;;10.73;;
63906;SDS011;50075;49.484;11.238;2023-08-01T07:19:22;57.17;;;7.70;;
63906;SDS011;50075;49.484;11.238;2023-08-01T07:21:47;78.88;;;8.15;;
63906;SDS011;50075;49.484;11.238;2023-08-01T07:24:13;92.22;;;8.68;;
63906;SDS011;50075;49.484;11.238;2023-08-01T07:26:39;59.72;;;7.43;;
63906;SDS011;50075;49.484;11.238;2023-08-01T07:29:05;58.83;;;6.55;;
63906;SDS011;50075;49.484;11.238;2023-08-01T07:31:30;93.70;;;18.80;;
63906;SDS011;50075;49.484;11.238;2023-08-01T07:33:55;108.68;;;10.68;;
63906;SDS011;50075;49.484;11.238;2023-08-01T07:36:20;68.00;;;19.13;;
63906;SDS011;50075;49.484;11.238;2023-08-01T07:38:46;96.82;;;9.13;;
63906;SDS011;50075;49.484;11.238;2023-08-01T07:41:12;61.45;;;7.25;;
63906;SDS011;50075;49.484;11.238;2023-08-01T07:43:37;71.30;;;7.68;;
63906;SDS011;50075;49.484;11.238;2023-08-01T07:46:02;76.10;;;7.78;;
63906;SDS011;50075;49.484;11.238;2023-08-01T07:48:28;61.65;;;6.65;;
63906;SDS011;50075;49.484;11.238;2023-08-01T07:50:53;120.57;;;11.43;;
63906;SDS011;50075;49.484;11.238;2023-08-01T07:53:19;76.60;;;7.68;;
63906;SDS011;50075;49.484;11.238;2023-08-01T07:55:44;62.92;;;7.03;;
63906;SDS011;50075;49.484;11.238;2023-08-01T07:58:09;69.80;;;7.23;;
63906;SDS011;50075;49.484;11.238;2023-08-01T08:00:34;61.67;;;7.23;;
63906;SDS011;50075;49.484;11.238;2023-08-01T08:03:00;128.35;;;11.35;;
63906;SDS011;50075;49.484;11.238;2023-08-01T08:05:25;64.55;;;7.10;;
63906;SDS011;50075;49.484;11.238;2023-08-01T08:07:50;136.33;;;11.83;;
63906;SDS011;50075;49.484;11.238;2023-08-01T08:10:15;308.30;;;232.53;;
63906;SDS011;50075;49.484;11.238;2023-08-01T08:12:41;91.20;;;8.80;;
63906;SDS011;50075;49.484;11.238;2023-08-01T08:15:06;64.38;;;7.07;;
63906;SDS011;50075;49.484;11.238;2023-08-01T08:17:31;59.10;;;6.85;;
63906;SDS011;50075;49.484;11.238;2023-08-01T08:19:57;193.73;;;36.38;;
63906;SDS011;50075;49.484;11.238;2023-08-01T08:22:22;338.85;;;165.73;;
63906;SDS011;50075;49.484;11.238;2023-08-01T08:24:47;50.77;;;6.07;;
63906;SDS011;50075;49.484;11.238;2023-08-01T08:27:13;80.45;;;7.00;;
63906;SDS011;50075;49.484;11.238;2023-08-01T08:29:38;95.77;;;16.30;;
63906;SDS011;50075;49.484;11.238;2023-08-01T08:32:03;114.47;;;10.10;;
63906;SDS011;50075;49.484;11.238;2023-08-01T08:34:29;70.05;;;6.78;;
63906;SDS011;50075;49.484;11.238;2023-08-01T08:36:54;255.77;;;50.50;;
63906;SDS011;50075;49.484;11.238;2023-08-01T08:39:19;138.93;;;47.13;;
63906;SDS011;50075;49.484;11.238;2023-08-01T08:41:45;69.67;;;6.80;;
63906;SDS011;50075;49.484;11.238;2023-08-01T08:44:12;161.27;;;31.63;;
63906;SDS011;50075;49.484;11.238;2023-08-01T08:46:41;237.38;;;84.47;;
63906;SDS011;50075;49.484;11.238;2023-08-01T08:49:08;80.00;;;14.13;;
63906;SDS011;50075;49.484;11.238;2023-08-01T08:51:33;40.28;;;5.20;;
63906;SDS011;50075;49.484;11.238;2023-08-01T08:54:00;101.82;;;8.85;;
63906;SDS011;50075;49.484;11.238;2023-08-01T08:56:26;67.13;;;7.55;;
63906;SDS011;50075;49.484;11.238;2023-08-01T08:58:51;86.80;;;7.78;;
63906;SDS011;50075;49.484;11.238;2023-08-01T09:01:17;159.32;;;27.55;;
63906;SDS011;50075;49.484;11.238;2023-08-01T09:03:42;77.40;;;7.07;;
63906;SDS011;50075;49.484;11.238;2023-08-01T09:06:10;229.57;;;101.13;;
63906;SDS011;50075;49.484;11.238;2023-08-01T09:08:36;76.13;;;11.02;;
63906;SDS011;50075;49.484;11.238;2023-08-01T09:11:04;133.98;;;13.63;;
63906;SDS011;50075;49.484;11.238;2023-08-01T09:13:29;58.15;;;5.88;;
63906;SDS011;50075;49.484;11.238;2023-08-01T09:15:55;101.97;;;8.02;;
63906;SDS011;50075;49.484;11.238;2023-08-01T09:18:21;61.55;;;5.55;;
63906;SDS011;50075;49.484;11.238;2023-08-01T09:20:47;66.57;;;7.85;;
63906;SDS011;50075;49.484;11.238;2023-08-01T09:23:13;92.45;;;8.05;;
63906;SDS011;50075;49.484;11.238;2023-08-01T09:25:39;57.90;;;5.30;;
63906;SDS011;50075;49.484;11.238;2023-08-01T09:28:20;111.55;;;9.48;;
63906;SDS011;50075;49.484;11.238;2023-08-01T09:30:50;60.92;;;5.95;;
63906;SDS011;50075;49.484;11.238;2023-08-01T09:33:16;73.65;;;9.60;;
63906;SDS011;50075;49.484;11.238;2023-08-01T09:35:41;82.53;;;7.40;;
63906;SDS011;50075;49.484;11.238;2023-08-01T09:38:07;160.07;;;32.35;;
63906;SDS011;50075;49.484;11.238;2023-08-01T09:40:39;54.88;;;5.65;;
63906;SDS011;50075;49.484;11.238;2023-08-01T09:43:05;137.93;;;11.15;;
63906;SDS011;50075;49.484;11.238;2023-08-01T09:45:30;59.17;;;9.35;;
63906;SDS011;50075;49.484;11.238;2023-08-01T09:47:55;148.90;;;19.92;;
63906;SDS011;50075;49.484;11.238;2023-08-01T09:50:21;62.27;;;7.83;;
63906;SDS011;50075;49.484;11.238;2023-08-01T09:52:47;52.00;;;6.28;;
63906;SDS011;50075;49.484;11.238;2023-08-01T09:55:17;72.68;;;7.22;;
63906;SDS011;50075;49.484;11.238;2023-08-01T09:57:43;61.60;;;7.30;;
63906;SDS011;50075;49.484;11.238;2023-08-01T10:00:10;104.90;;;9.70;;
63906;SDS011;50075;49.484;11.238;2023-08-01T10:02:35;92.43;;;18.58;;
63906;SDS011;50075;49.484;11.238;2023-08-01T10:05:01;106.75;;;8.68;;
63906;SDS011;50075;49.484;11.238;2023-08-01T10:07:28;77.32;;;18.30;;
63906;SDS011;50075;49.484;11.238;2023-08-01T10:09:54;124.30;;;19.52;;
63906;SDS011;50075;49.484;11.238;2023-08-01T10:12:20;96.85;;;44.88;;
63906;SDS011;50075;49.484;11.238;2023-08-01T10:14:47;68.90;;;22.33;;
63906;SDS011;50075;49.484;11.238;2023-08-01T10:17:12;264.55;;;170.73;;
63906;SDS011;50075;49.484;11.238;2023-08-01T10:19:39;57.97;;;10.13;;
63906;SDS011;50075;49.484;11.238;2023-08-01T10:22:06;140.00;;;46.72;;
63906;SDS011;50075;49.484;11.238;2023-08-01T10:24:31;84.95;;;13.20;;
63906;SDS011;50075;49.484;11.238;2023-08-01T10:26:57;193.57;;;104.55;;
63906;SDS011;50075;49.484;11.238;2023-08-01T10:29:34;140.65;;;49.30;;
63906;SDS011;50075;49.484;11.238;2023-08-01T10:31:59;110.55;;;12.90;;
63906;SDS011;50075;49.484;11.238;2023-08-01T10:34:24;76.90;;;26.02;;
63906;SDS011;50075;49.484;11.238;2023-08-01T10:36:53;123.30;;;34.03;;
63906;SDS011;50075;49.484;11.238;2023-08-01T10:39:22;154.55;;;109.95;;
63906;SDS011;50075;49.484;11.238;2023-08-01T10:41:56;287.70;;;136.02;;
63906;SDS011;50075;49.484;11.238;2023-08-01T10:44:21;156.52;;;93.82;;
63906;SDS011;50075;49.484;11.238;2023-08-01T10:46:56;217.73;;;187.73;;
63906;SDS011;50075;49.484;11.238;2023-08-01T10:51:59;171.95;;;67.43;;
63906;SDS011;50075;49.484;11.238;2023-08-01T10:54:25;192.93;;;119.72;;
63906;SDS011;50075;49.484;11.238;2023-08-01T10:56:55;274.27;;;53.30;;
63906;SDS011;50075;49.484;11.238;2023-08-01T10:59:21;188.70;;;142.57;;
63906;SDS011;50075;49.484;11.238;2023-08-01T11:01:50;102.55;;;51.22;;
63906;SDS011;50075;49.484;11.238;2023-08-01T11:06:59;93.77;;;15.97;;
63906;SDS011;50075;49.484;11.238;2023-08-01T11:09:25;199.75;;;137.70;;
63906;SDS011;50075;49.484;11.238;2023-08-01T11:11:57;166.77;;;109.07;;
63906;SDS011;50075;49.484;11.238;2023-08-01T11:14:24;92.25;;;50.67;;
63906;SDS011;50075;49.484;11.238;2023-08-01T11:16:50;211.23;;;174.07;;
63906;SDS011;50075;49.484;11.238;2023-08-01T11:21:44;179.00;;;137.27;;
63906;SDS011;50075;49.484;11.238;2023-08-01T11:24:10;147.57;;;20.13;;
63906;SDS011;50075;49.484;11.238;2023-08-01T11:26:35;103.53;;;32.92;;
63906;SDS011;50075;49.484;11.238;2023-08-01T11:29:01;151.02;;;71.30;;
63906;SDS011;50075;49.484;11.238;2023-08-01T11:31:28;85.55;;;38.53;;
63906;SDS011;50075;49.484;11.238;2023-08-01T11:33:56;78.47;;;20.00;;
63906;SDS011;50075;49.484;11.238;2023-08-01T11:36:22;192.80;;;173.57;;
63906;SDS011;50075;49.484;11.238;2023-08-01T11:38:48;156.70;;;103.95;;
63906;SDS011;50075;49.484;11.238;2023-08-01T11:41:14;173.93;;;53.60;;
63906;SDS011;50075;49.484;11.238;2023-08-01T11:43:43;140.95;;;26.23;;
63906;SDS011;50075;49.484;11.238;2023-08-01T11:46:08;207.45;;;38.17;;
63906;SDS011;50075;49.484;11.238;2023-08-01T11:48:34;47.55;;;4.35;;
63906;SDS011;50075;49.484;11.238;2023-08-01T11:51:00;187.25;;;155.55;;
63906;SDS011;50075;49.484;11.238;2023-08-01T11:53:26;198.38;;;110.13;;
63906;SDS011;50075;49.484;11.238;2023-08-01T11:55:51;194.75;;;160.48;;
63906;SDS011;50075;49.484;11.238;2023-08-01T11:58:36;278.52;;;177.55;;
63906;SDS011;50075;49.484;11.238;2023-08-01T12:01:03;151.27;;;89.57;;
63906;SDS011;50075;49.484;11.238;2023-08-01T12:03:29;200.35;;;98.20;;
63906;SDS011;50075;49.484;11.238;2023-08-01T12:06:04;265.40;;;136.43;;
63906;SDS011;50075;49.484;11.238;2023-08-01T12:08:31;73.95;;;24.10;;
63906;SDS011;50075;49.484;11.238;2023-08-01T12:10:57;317.58;;;201.73;;
63906;SDS011;50075;49.484;11.238;2023-08-01T12:13:23;166.33;;;147.33;;
63906;SDS011;50075;49.484;11.238;2023-08-01T12:15:49;61.03;;;9.68;;
63906;SDS011;50075;49.484;11.238;2023-08-01T12:18:29;257.58;;;186.68;;
63906;SDS011;50075;49.484;11.238;2023-08-01T12:20:54;127.70;;;86.15;;
63906;SDS011;50075;49.484;11.238;2023-08-01T12:23:20;168.57;;;125.13;;
63906;SDS011;50075;49.484;11.238;2023-08-01T12:25:46;196.60;;;168.77;;
63906;SDS011;50075;49.484;11.238;2023-08-01T12:28:12;233.07;;;120.97;;
63906;SDS011;50075;49.484;11.238;2023-08-01T12:30:41;246.82;;;188.73;;
63906;SDS011;50075;49.484;11.238;2023-08-01T12:33:07;311.55;;;143.18;;
63906;SDS011;50075;49.484;11.238;2023-08-01T12:35:33;250.75;;;225.50;;
63906;SDS011;50075;49.484;11.238;2023-08-01T12:37:58;217.27;;;167.33;;
63906;SDS011;50075;49.484;11.238;2023-08-01T12:40:23;163.95;;;131.27;;
63906;SDS011;50075;49.484;11.238;2023-08-01T12:42:49;223.07;;;170.87;;
63906;SDS011;50075;49.484;11.238;2023-08-01T12:45:14;212.25;;;108.70;;
63906;SDS011;50075;49.484;11.238;2023-08-01T12:47:39;224.63;;;200.90;;
63906;SDS011;50075;49.484;11.238;2023-08-01T12:50:04;155.73;;;105.90;;
63906;SDS011;50075;49.484;11.238;2023-08-01T12:52:30;168.70;;;107.18;;
63906;SDS011;50075;49.484;11.238;2023-08-01T12:54:55;328.57;;;248.87;;
63906;SDS011;50075;49.484;11.238;2023-08-01T12:57:20;260.57;;;116.73;;
63906;SDS011;50075;49.484;11.238;2023-08-01T12:59:46;323.42;;;256.98;;
63906;SDS011;50075;49.484;11.238;2023-08-01T13:02:12;223.15;;;122.25;;
63906;SDS011;50075;49.484;11.238;2023-08-01T13:04:37;143.90;;;113.88;;
63906;SDS011;50075;49.484;11.238;2023-08-01T13:07:03;181.35;;;142.85;;
63906;SDS011;50075;49.484;11.238;2023-08-01T13:09:28;241.23;;;214.20;;
63906;SDS011;50075;49.484;11.238;2023-08-01T13:11:53;184.50;;;149.37;;
63906;SDS011;50075;49.484;11.238;2023-08-01T13:14:19;275.43;;;160.47;;
63906;SDS011;50075;49.484;11.238;2023-08-01T13:16:44;221.93;;;100.90;;
63906;SDS011;50075;49.484;11.238;2023-08-01T13:19:09;193.27;;;91.43;;
63906;SDS011;50075;49.484;11.238;2023-08-01T13:21:34;208.80;;;61.87;;
63906;SDS011;50075;49.484;11.238;2023-08-01T13:24:00;118.70;;;84.57;;
63906;SDS011;50075;49.484;11.238;2023-08-01T13:26:30;154.30;;;69.00;;
63906;SDS011;50075;49.484;11.238;2023-08-01T13:28:55;164.43;;;95.80;;
63906;SDS011;50075;49.484;11.238;2023-08-01T13:31:20;222.45;;;111.88;;
63906;SDS011;50075;49.484;11.238;2023-08-01T13:33:45;130.67;;;48.83;;
63906;SDS011;50075;49.484;11.238;2023-08-01T13:36:11;144.48;;;57.63;;
63906;SDS011;50075;49.484;11.238;2023-08-01T13:38:36;199.55;;;146.60;;
63906;SDS011;50075;49.484;11.238;2023-08-01T13:41:01;265.70;;;194.20;;
63906;SDS011;50075;49.484;11.238;2023-08-01T13:43:26;50.50;;;11.18;;
63906;SDS011;50075;49.484;11.238;2023-08-01T13:45:52;196.47;;;173.77;;
63906;SDS011;50075;49.484;11.238;2023-08-01T13:48:18;187.82;;;42.83;;
63906;SDS011;50075;49.484;11.238;2023-08-01T13:50:43;125.47;;;93.80;;
63906;SDS011;50075;49.484;11.238;2023-08-01T13:53:08;148.07;;;73.22;;
63906;SDS011;50075;49.484;11.238;2023-08-01T13:55:37;271.23;;;94.35;;
63906;SDS011;50075;49.484;11.238;2023-08-01T13:58:02;205.65;;;134.80;;
63906;SDS011;50075;49.484;11.238;2023-08-01T14:00:27;101.90;;;53.07;;
63906;SDS011;50075;49.484;11.238;2023-08-01T14:02:52;174.05;;;101.57;;
63906;SDS011;50075;49.484;11.238;2023-08-01T14:05:18;167.52;;;30.50;;
63906;SDS011;50075;49.484;11.238;2023-08-01T14:07:43;220.35;;;169.30;;